createdAt,value
2018-08-01T00:00:04.349Z,20.48
2018-08-01T00:05:04.363Z,20.43
2018-08-01T00:10:04.360Z,20.34
2018-08-01T00:15:04.357Z,20.24
2018-08-01T00:20:04.367Z,20.19
2018-08-01T00:25:04.362Z,20.05
2018-08-01T00:30:04.365Z,19.97
2018-08-01T00:35:04.384Z,19.91
2018-08-01T00:40:04.371Z,19.89
2018-08-01T00:45:04.377Z,19.94
2018-08-01T00:50:04.392Z,19.88
2018-08-01T00:55:04.376Z,19.86
2018-08-01T01:00:04.379Z,19.89
2018-08-01T01:05:04.394Z,19.92
2018-08-01T01:10:04.384Z,20.04
2018-08-01T01:15:04.388Z,20.12
2018-08-01T01:20:04.390Z,19.99
2018-08-01T01:25:03.410Z,18.58
2018-08-01T01:30:03.403Z,15.98
2018-08-01T02:00:03.426Z,41.01
2018-08-01T02:05:03.417Z,41.01
2018-08-01T02:10:03.417Z,41.01
2018-08-01T02:15:03.434Z,41.01
2018-08-01T02:20:03.429Z,41.01
2018-08-01T02:25:03.435Z,41.01
2018-08-01T02:30:03.437Z,41.01
2018-08-01T02:35:03.432Z,41.01
2018-08-01T02:40:03.434Z,41.01
2018-08-01T02:45:03.465Z,41.01
2018-08-01T02:50:03.446Z,41.01
2018-08-01T02:55:03.445Z,41.01
2018-08-01T03:00:03.455Z,41.01
2018-08-01T03:05:03.458Z,41.01
2018-08-01T03:10:03.455Z,41.01
2018-08-01T03:15:03.471Z,41.01
2018-08-01T03:20:03.454Z,41.01
2018-08-01T03:25:03.461Z,41.01
2018-08-01T03:30:03.476Z,41.01
2018-08-01T03:35:03.466Z,41.01
2018-08-01T03:40:03.466Z,41.01
2018-08-01T03:45:03.487Z,41.01
2018-08-01T03:50:03.472Z,41.01
2018-08-01T03:55:03.476Z,41.01
2018-08-01T07:55:03.637Z,41.01
2018-08-01T08:35:03.625Z,41.01
2018-08-01T08:40:03.625Z,24.54
2018-08-01T08:45:03.628Z,24.89
2018-08-01T08:50:03.657Z,41.01
2018-08-01T08:55:03.644Z,25.71
2018-08-01T09:05:03.643Z,26.13
2018-08-01T09:10:03.640Z,26.83
2018-08-01T09:15:03.648Z,27.52
2018-08-01T09:20:03.648Z,27.98
2018-08-01T09:25:03.669Z,28.53
2018-08-01T09:30:03.654Z,29.09
2018-08-01T09:35:03.651Z,29.2
2018-08-01T09:40:03.657Z,29.02
2018-08-01T09:45:03.681Z,29.95
2018-08-01T09:50:03.663Z,30.24
2018-08-01T09:55:04.440Z,31.18
2018-08-01T10:00:03.683Z,31.6
2018-08-01T10:05:03.672Z,31.9
2018-08-01T10:10:03.679Z,32.55
2018-08-01T10:15:03.681Z,32.49
2018-08-01T10:20:03.707Z,32.32
2018-08-01T10:25:03.693Z,31.94
2018-08-01T10:30:03.698Z,31.36
2018-08-01T10:35:03.709Z,30.54
2018-08-01T10:40:03.694Z,29.75
2018-08-01T10:45:03.703Z,29.23
2018-08-01T10:50:03.918Z,28.78
2018-08-01T10:55:03.712Z,28.5
2018-08-01T11:00:03.704Z,29.12
2018-08-01T11:05:03.746Z,29.94
2018-08-01T11:10:03.728Z,30
2018-08-01T11:15:03.714Z,30.54
2018-08-01T11:20:03.713Z,31.16
2018-08-01T11:25:03.736Z,31.49
2018-08-01T11:30:03.720Z,32.15
2018-08-01T11:35:03.722Z,32.35
2018-08-01T11:40:03.727Z,32.91
2018-08-01T11:45:03.738Z,34.09
2018-08-01T11:50:03.746Z,35.96
2018-08-01T11:55:03.728Z,38.06
2018-08-01T12:00:03.739Z,38.68
2018-08-01T12:05:03.752Z,37.65
2018-08-01T12:10:03.740Z,36.16
2018-08-01T12:15:03.808Z,36.58
2018-08-01T12:20:03.757Z,38.26
2018-08-01T12:25:03.749Z,39.21
2018-08-01T12:30:03.760Z,39.95
2018-08-01T12:35:03.752Z,41.1
2018-08-01T12:40:03.760Z,41.1
2018-08-01T12:45:03.766Z,41.54
2018-08-01T12:50:03.764Z,42.99
2018-08-01T12:55:03.767Z,42.38
2018-08-01T13:00:03.787Z,42.43
2018-08-01T13:05:03.770Z,43.06
2018-08-01T13:10:03.772Z,42.35
2018-08-01T13:15:03.785Z,42.83
2018-08-01T13:20:03.780Z,42.39
2018-08-01T13:25:03.780Z,41.96
2018-08-01T13:30:03.800Z,39.63
2018-08-01T13:35:03.782Z,39.99
2018-08-01T13:40:03.791Z,38.84
2018-08-01T13:45:03.812Z,36.98
2018-08-01T13:50:03.794Z,35.86
2018-08-01T13:55:03.791Z,34.41
2018-08-01T14:00:03.815Z,33.47
2018-08-01T14:05:03.799Z,33.06
2018-08-01T14:10:03.807Z,33.53
2018-08-01T14:15:03.815Z,33.87
2018-08-01T14:20:03.811Z,33.68
2018-08-01T14:25:03.807Z,34.18
2018-08-01T14:30:03.833Z,36.55
2018-08-01T14:35:03.816Z,38.23
2018-08-01T14:40:03.819Z,39.89
2018-08-01T14:45:03.829Z,41.07
2018-08-01T14:50:03.821Z,42.19
2018-08-01T14:55:03.823Z,42.03
2018-08-01T15:00:03.842Z,41.89
2018-08-01T15:05:03.827Z,41.11
2018-08-01T15:10:03.835Z,40.84
2018-08-01T15:15:03.856Z,40.77
2018-08-01T15:20:03.837Z,40.48
2018-08-01T15:25:03.842Z,40.37
2018-08-01T15:30:03.861Z,40.03
2018-08-01T15:35:03.853Z,37.2
2018-08-01T15:40:03.895Z,37.28
2018-08-01T15:45:03.870Z,38.76
2018-08-01T15:50:03.857Z,40.22
2018-08-01T15:55:03.858Z,41.43
2018-08-01T16:00:03.936Z,41.58
2018-08-01T16:05:03.866Z,40.76
2018-08-01T16:10:03.869Z,40.99
2018-08-01T16:15:03.875Z,40.6
2018-08-01T16:20:03.870Z,40.63
2018-08-01T16:25:03.874Z,38.22
2018-08-01T16:30:03.883Z,35.29
2018-08-01T16:35:03.879Z,33.59
2018-08-01T16:40:03.884Z,32.42
2018-08-01T16:45:03.892Z,31.59
2018-08-01T16:50:03.891Z,31.07
2018-08-01T16:55:03.892Z,30.64
2018-08-01T17:00:03.906Z,41.01
2018-08-01T17:05:03.899Z,41.01
2018-08-01T17:10:03.903Z,31.45
2018-08-01T17:15:03.910Z,30.15
2018-08-01T17:20:03.906Z,29.51
2018-08-01T17:25:03.914Z,29.07
2018-08-01T17:30:03.914Z,28.75
2018-08-01T17:35:03.921Z,28.55
2018-08-01T17:40:03.912Z,28.43
2018-08-01T17:45:03.920Z,28.3
2018-08-01T17:50:03.936Z,28.11
2018-08-01T17:55:03.926Z,27.94
2018-08-01T18:00:03.927Z,27.93
2018-08-01T18:05:03.932Z,27.65
2018-08-01T18:10:03.949Z,27.45
2018-08-01T18:15:04.009Z,27.26
2018-08-01T18:20:03.939Z,27.09
2018-08-01T18:25:03.943Z,26.93
2018-08-01T18:30:04.149Z,26.73
2018-08-01T18:35:03.945Z,26.5
2018-08-01T18:40:03.959Z,26.32
2018-08-01T18:45:03.948Z,26.07
2018-08-01T18:50:03.951Z,25.79
2018-08-01T18:55:03.960Z,25.56
2018-08-01T19:00:03.970Z,25.34
2018-08-01T19:05:03.977Z,25.15
2018-08-01T19:10:04.014Z,24.95
2018-08-01T19:15:03.966Z,24.82
2018-08-01T19:20:03.967Z,24.73
2018-08-01T19:25:03.982Z,24.7
2018-08-01T19:30:03.984Z,24.63
2018-08-01T19:35:03.976Z,24.54
2018-08-01T19:40:03.986Z,24.34
2018-08-01T19:45:03.992Z,24.23
2018-08-01T19:50:04.041Z,24.19
2018-08-01T19:55:04.983Z,24.1
2018-08-01T20:00:04.184Z,23.97
2018-08-01T20:05:03.995Z,23.8
2018-08-01T20:10:04.003Z,23.67
2018-08-01T20:15:03.996Z,23.64
2018-08-01T20:20:04.008Z,23.67
2018-08-01T20:25:04.010Z,23.6
2018-08-01T20:30:04.004Z,23.54
2018-08-01T20:35:04.029Z,23.52
2018-08-01T20:40:04.021Z,23.43
2018-08-01T20:45:04.021Z,23.4
2018-08-01T20:50:04.022Z,23.36
2018-08-01T20:55:04.045Z,23.3
2018-08-01T21:00:04.024Z,23.25
2018-08-01T21:05:04.036Z,23.18
2018-08-01T21:10:04.039Z,23.15
2018-08-01T21:15:04.032Z,23.03
2018-08-01T21:20:04.036Z,22.94
2018-08-01T21:25:04.059Z,22.86
2018-08-01T21:30:04.060Z,22.8
2018-08-01T21:35:04.045Z,22.73
2018-08-01T21:40:04.058Z,22.69
2018-08-01T21:45:04.059Z,21.93
2018-08-01T21:50:04.062Z,20.99
2018-08-01T21:55:04.072Z,20.31
2018-08-01T22:00:04.059Z,20.04
2018-08-01T22:05:04.058Z,19.92
2018-08-01T22:10:04.064Z,19.87
2018-08-01T22:15:04.069Z,19.9
2018-08-01T22:20:04.065Z,19.95
2018-08-01T22:25:04.082Z,20
2018-08-01T22:30:04.089Z,20.05
2018-08-01T22:35:04.087Z,20.12
2018-08-01T22:40:04.080Z,20.25
2018-08-01T22:45:04.099Z,20.27
2018-08-01T22:50:04.088Z,20.3
2018-08-01T22:55:04.092Z,20.31
2018-08-01T23:00:04.107Z,20.4
2018-08-01T23:05:04.093Z,20.56
2018-08-01T23:10:04.090Z,20.7
2018-08-01T23:15:04.102Z,20.71
2018-08-01T23:20:04.093Z,20.77
2018-08-01T23:25:04.119Z,20.77
2018-08-01T23:30:04.107Z,20.78
2018-08-01T23:35:04.109Z,20.77
2018-08-01T23:40:04.109Z,20.85
2018-08-01T23:45:04.117Z,20.9
2018-08-01T23:50:04.110Z,20.94
2018-08-01T23:55:04.115Z,20.95
